Time;durP1;ratioP1;P1;durP2;ratioP2;P2;SDS_P1;SDS_P2;PMS_P1;PMS_P2;Temp;Humidity;BMP_temperature;BMP_pressure;BME280_temperature;BME280_humidity;BME280_pressure;Samples;Min_cycle;Max_cycle;Signal;HPM_P1;HPM_P2
2023/12/18 00:01:03;;;;;;;4.20;1.67;;;6.40;99.90;;;;;;4973266;28;20064;-82
2023/12/18 00:03:32;;;;;;;5.05;2.17;;;6.40;99.90;;;;;;4971294;28;20033;-82
2023/12/18 00:05:58;;;;;;;1.33;0.93;;;6.40;99.90;;;;;;4989872;28;20041;-82
2023/12/18 00:08:23;;;;;;;5.40;3.53;;;6.40;99.90;;;;;;4972014;28;20041;-84
2023/12/18 00:10:49;;;;;;;3.20;1.65;;;6.40;99.90;;;;;;4991036;28;20104;-81
2023/12/18 00:13:14;;;;;;;5.63;2.38;;;6.20;99.90;;;;;;4986555;28;20045;-82
2023/12/18 00:15:40;;;;;;;7.15;2.90;;;6.20;99.90;;;;;;4989083;28;20479;-82
2023/12/18 00:18:06;;;;;;;6.38;2.47;;;6.30;99.90;;;;;;4978158;28;20052;-82
2023/12/18 00:20:31;;;;;;;7.53;2.63;;;6.20;99.90;;;;;;4981504;28;20518;-82
2023/12/18 00:22:58;;;;;;;5.35;2.55;;;6.30;99.90;;;;;;4957853;28;20118;-82
2023/12/18 00:25:23;;;;;;;2.20;1.23;;;6.20;99.90;;;;;;4959837;28;20044;-84
2023/12/18 00:27:49;;;;;;;5.45;2.78;;;6.10;99.90;;;;;;4948805;28;20578;-82
2023/12/18 00:30:15;;;;;;;7.43;2.92;;;6.20;99.90;;;;;;4976879;28;20030;-84
2023/12/18 00:32:41;;;;;;;6.32;2.30;;;6.10;99.90;;;;;;4972898;28;20025;-82
2023/12/18 00:35:07;;;;;;;6.15;3.05;;;6.20;99.90;;;;;;4972197;28;20124;-81
2023/12/18 00:37:32;;;;;;;8.20;3.17;;;6.20;99.90;;;;;;4973253;28;20029;-84
2023/12/18 00:39:58;;;;;;;7.80;3.45;;;6.20;99.90;;;;;;4974113;28;20033;-82
2023/12/18 00:42:23;;;;;;;5.35;3.63;;;6.10;99.90;;;;;;4978344;28;20061;-82
2023/12/18 00:44:49;;;;;;;4.30;2.17;;;6.00;99.90;;;;;;4972312;28;20056;-82
2023/12/18 00:47:14;;;;;;;7.40;2.60;;;6.00;99.90;;;;;;4986753;28;20041;-82
2023/12/18 00:49:40;;;;;;;5.63;3.00;;;6.10;99.90;;;;;;4968166;28;20110;-82
2023/12/18 00:52:06;;;;;;;7.20;3.38;;;6.00;99.90;;;;;;4970117;28;20051;-82
2023/12/18 00:54:31;;;;;;;6.15;2.70;;;6.00;99.90;;;;;;4990422;28;20104;-82
2023/12/18 00:56:57;;;;;;;4.35;2.20;;;5.90;99.90;;;;;;4982397;28;20036;-82
2023/12/18 00:59:22;;;;;;;3.10;1.15;;;6.00;99.90;;;;;;4977627;28;20034;-82
2023/12/18 01:01:48;;;;;;;6.57;3.15;;;6.00;99.90;;;;;;4972170;28;20030;-82
2023/12/18 01:04:13;;;;;;;6.38;3.17;;;5.80;99.90;;;;;;4972103;28;20041;-81
2023/12/18 01:06:39;;;;;;;2.63;1.88;;;5.70;99.90;;;;;;4970828;28;20076;-83
2023/12/18 01:09:05;;;;;;;6.55;2.95;;;5.60;99.90;;;;;;4988989;28;20042;-83
2023/12/18 01:11:30;;;;;;;7.45;1.90;;;5.80;99.90;;;;;;4975279;28;20042;-83
2023/12/18 01:13:56;;;;;;;9.60;2.10;;;5.70;99.90;;;;;;4986790;28;20100;-83
2023/12/18 01:16:21;;;;;;;1.05;0.80;;;5.60;99.90;;;;;;4969182;28;20034;-83
2023/12/18 01:18:47;;;;;;;5.70;2.25;;;5.60;99.90;;;;;;4970702;28;20142;-83
2023/12/18 01:21:13;;;;;;;9.38;3.72;;;5.80;99.90;;;;;;4988296;28;20383;-82
2023/12/18 01:23:39;;;;;;;2.60;1.85;;;5.70;99.90;;;;;;4970058;28;20030;-83
2023/12/18 01:26:05;;;;;;;2.17;1.27;;;5.80;99.90;;;;;;4974770;28;20033;-83
2023/12/18 01:28:31;;;;;;;8.43;2.83;;;5.60;99.90;;;;;;4990558;28;20030;-83
2023/12/18 01:30:56;;;;;;;7.82;3.25;;;5.60;99.90;;;;;;4983641;28;20098;-82
2023/12/18 01:33:22;;;;;;;1.88;1.67;;;5.60;99.90;;;;;;4975119;28;20091;-82
2023/12/18 01:35:47;;;;;;;5.68;3.08;;;5.60;99.90;;;;;;4983832;28;20034;-82
2023/12/18 01:38:13;;;;;;;5.43;2.28;;;5.60;99.90;;;;;;4983578;28;20050;-83
2023/12/18 01:40:38;;;;;;;9.10;3.30;;;5.60;99.90;;;;;;4988790;28;20061;-83
2023/12/18 01:43:25;;;;;;;6.15;2.85;;;5.60;99.90;;;;;;4985339;28;20498;-83
2023/12/18 01:46:00;;;;;;;6.60;2.70;;;5.40;99.90;;;;;;4968371;28;20073;-84
2023/12/18 01:48:26;;;;;;;7.85;1.50;;;5.40;99.90;;;;;;4974306;28;20104;-83
2023/12/18 01:50:55;;;;;;;2.45;1.30;;;5.40;99.90;;;;;;4973840;28;20038;-83
2023/12/18 01:53:27;;;;;;;9.30;4.07;;;5.40;99.90;;;;;;4972962;28;20160;-86
2023/12/18 01:55:53;;;;;;;6.60;2.67;;;5.40;99.90;;;;;;4975261;28;20611;-85
2023/12/18 01:58:18;;;;;;;7.13;1.98;;;5.50;99.90;;;;;;4974319;28;20101;-85
2023/12/18 02:00:44;;;;;;;10.18;3.20;;;5.40;99.90;;;;;;4972467;28;20026;-85
2023/12/18 02:03:12;;;;;;;3.53;1.73;;;5.60;99.90;;;;;;4970631;28;20037;-85
2023/12/18 02:05:38;;;;;;;6.68;1.75;;;5.80;99.90;;;;;;4990597;28;20044;-85
2023/12/18 02:08:05;;;;;;;6.65;2.47;;;5.50;99.90;;;;;;4976700;28;20081;-85
2023/12/18 02:10:30;;;;;;;3.13;2.10;;;5.60;99.90;;;;;;4970290;28;20026;-85
2023/12/18 02:12:56;;;;;;;5.35;2.40;;;5.60;99.90;;;;;;4970357;28;20049;-85
2023/12/18 02:15:21;;;;;;;7.13;2.65;;;5.70;99.90;;;;;;4991211;28;21003;-85
2023/12/18 02:17:47;;;;;;;9.88;3.22;;;5.60;99.90;;;;;;4975007;28;20494;-85
2023/12/18 02:20:13;;;;;;;7.90;3.78;;;5.70;99.90;;;;;;4991759;28;20061;-84
2023/12/18 02:22:48;;;;;;;4.55;1.67;;;5.70;99.90;;;;;;4978115;28;20394;-83
2023/12/18 02:25:15;;;;;;;4.20;2.50;;;5.70;99.90;;;;;;4993831;28;20045;-84
2023/12/18 02:27:41;;;;;;;9.35;4.75;;;5.80;99.90;;;;;;4981364;28;20121;-85
2023/12/18 02:30:07;;;;;;;5.75;3.15;;;5.60;99.90;;;;;;4997372;28;20050;-84
2023/12/18 02:32:35;;;;;;;8.25;4.57;;;5.60;99.90;;;;;;4990413;28;20033;-84
2023/12/18 02:35:00;;;;;;;6.63;3.13;;;5.60;99.90;;;;;;4984189;28;20048;-85
2023/12/18 02:37:27;;;;;;;7.75;3.05;;;5.60;99.90;;;;;;4981062;28;20502;-85
2023/12/18 02:39:53;;;;;;;9.23;3.65;;;5.60;99.90;;;;;;4970798;28;20843;-83
2023/12/18 02:42:18;;;;;;;3.13;1.98;;;5.50;99.90;;;;;;4993969;28;20034;-85
2023/12/18 02:44:44;;;;;;;3.92;2.50;;;5.40;99.90;;;;;;4988234;28;20034;-85
2023/12/18 02:47:09;;;;;;;6.90;2.65;;;5.40;99.90;;;;;;4978997;28;20031;-83
2023/12/18 02:49:35;;;;;;;4.72;2.92;;;5.40;99.90;;;;;;4981262;28;20034;-84
2023/12/18 02:52:00;;;;;;;15.50;5.82;;;5.40;99.90;;;;;;4993673;28;20034;-85
2023/12/18 02:54:26;;;;;;;12.57;3.08;;;5.50;99.90;;;;;;4977014;28;20032;-84
2023/12/18 02:56:51;;;;;;;10.40;3.70;;;5.30;99.90;;;;;;4982141;28;20034;-85
2023/12/18 02:59:17;;;;;;;7.15;2.83;;;5.40;99.90;;;;;;4977360;28;20092;-86
2023/12/18 03:01:43;;;;;;;11.45;4.40;;;5.40;99.90;;;;;;4991452;28;20031;-82
2023/12/18 03:04:08;;;;;;;10.05;2.92;;;5.40;99.90;;;;;;4988254;28;20034;-82
2023/12/18 03:06:34;;;;;;;12.27;6.93;;;5.30;99.90;;;;;;4971438;28;20037;-82
2023/12/18 03:08:59;;;;;;;8.68;4.57;;;5.30;99.90;;;;;;4978354;28;20030;-82
2023/12/18 03:11:25;;;;;;;14.98;4.78;;;5.30;99.90;;;;;;4986207;28;20026;-82
2023/12/18 03:13:50;;;;;;;12.13;4.90;;;5.30;99.90;;;;;;4960381;28;20167;-82
2023/12/18 03:16:16;;;;;;;15.27;7.60;;;5.30;99.90;;;;;;4992869;28;20482;-83
2023/12/18 03:18:41;;;;;;;14.20;8.20;;;5.20;99.90;;;;;;4976245;28;20038;-81
2023/12/18 03:21:10;;;;;;;15.88;5.97;;;5.20;99.90;;;;;;4975772;28;20026;-82
2023/12/18 03:23:36;;;;;;;23.75;8.70;;;5.10;99.90;;;;;;4972244;28;20363;-82
2023/12/18 03:26:02;;;;;;;15.13;6.55;;;5.00;99.90;;;;;;4963270;28;20037;-81
2023/12/18 03:28:28;;;;;;;10.73;5.82;;;5.00;99.90;;;;;;4975224;28;20033;-82
2023/12/18 03:30:53;;;;;;;14.27;7.22;;;5.00;99.90;;;;;;4974173;28;20386;-82
2023/12/18 03:33:19;;;;;;;17.90;7.45;;;4.90;99.90;;;;;;4977499;28;20119;-82
2023/12/18 03:35:44;;;;;;;9.82;4.22;;;4.90;99.90;;;;;;4976422;28;20095;-80
2023/12/18 03:38:11;;;;;;;18.00;7.72;;;4.90;99.90;;;;;;4989468;28;20025;-81
2023/12/18 03:40:37;;;;;;;8.45;4.28;;;5.00;99.90;;;;;;4974764;28;20038;-81
2023/12/18 03:43:02;;;;;;;11.77;5.40;;;5.00;99.90;;;;;;4971411;28;20036;-82
2023/12/18 03:45:28;;;;;;;10.73;4.97;;;5.00;99.90;;;;;;4971028;28;20038;-82
2023/12/18 03:47:53;;;;;;;15.38;5.97;;;5.00;99.90;;;;;;4974440;28;20249;-82
2023/12/18 03:50:19;;;;;;;18.10;8.07;;;5.00;99.90;;;;;;4990700;28;20038;-82
2023/12/18 03:52:45;;;;;;;17.50;7.53;;;5.00;99.90;;;;;;4977127;28;20034;-82
2023/12/18 03:55:10;;;;;;;15.35;7.10;;;5.00;99.90;;;;;;4972859;28;20038;-83
2023/12/18 03:57:36;;;;;;;9.32;4.43;;;5.00;99.90;;;;;;4969909;28;20451;-82
2023/12/18 04:00:03;;;;;;;14.95;8.13;;;4.90;99.90;;;;;;4989138;28;20021;-81
2023/12/18 04:02:28;;;;;;;12.27;5.88;;;4.90;99.90;;;;;;4985768;28;20040;-82
2023/12/18 04:04:54;;;;;;;13.45;5.93;;;5.00;99.90;;;;;;4988436;28;20030;-82
2023/12/18 04:07:22;;;;;;;11.38;5.13;;;5.00;99.90;;;;;;4985191;28;20463;-83
2023/12/18 04:09:48;;;;;;;11.85;7.20;;;5.00;99.90;;;;;;4988038;28;20040;-82
2023/12/18 04:12:13;;;;;;;10.68;4.80;;;5.10;99.90;;;;;;4991651;28;20385;-81
2023/12/18 04:14:39;;;;;;;8.48;4.80;;;4.90;99.90;;;;;;4972053;28;20026;-83
2023/12/18 04:17:04;;;;;;;11.25;5.15;;;4.90;99.90;;;;;;4972692;28;20114;-83
2023/12/18 04:19:30;;;;;;;15.48;6.88;;;4.90;99.90;;;;;;4974524;28;20037;-82
2023/12/18 04:21:55;;;;;;;14.23;7.25;;;4.80;99.90;;;;;;4970142;28;20475;-83
2023/12/18 04:24:21;;;;;;;14.63;7.07;;;4.90;99.90;;;;;;4976113;28;20075;-83
2023/12/18 04:26:46;;;;;;;16.92;6.82;;;4.90;99.90;;;;;;4985995;28;20091;-83
2023/12/18 04:29:12;;;;;;;8.52;4.53;;;4.80;99.90;;;;;;4974926;28;20038;-83
2023/12/18 04:31:38;;;;;;;14.07;7.20;;;4.80;99.90;;;;;;4984338;28;20026;-82
2023/12/18 04:34:03;;;;;;;9.88;4.68;;;4.80;99.90;;;;;;4975075;28;20031;-83
2023/12/18 04:36:29;;;;;;;8.68;3.78;;;4.80;99.90;;;;;;4976393;28;20026;-83
2023/12/18 04:38:54;;;;;;;26.17;7.45;;;4.90;99.90;;;;;;4989596;28;20042;-83
2023/12/18 04:41:20;;;;;;;13.93;6.60;;;4.90;99.90;;;;;;4993774;28;20671;-83
2023/12/18 04:43:46;;;;;;;12.43;7.03;;;4.90;99.90;;;;;;4975334;28;20095;-83
2023/12/18 04:46:12;;;;;;;16.63;8.45;;;4.90;99.90;;;;;;4969760;28;20077;-82
2023/12/18 04:48:38;;;;;;;14.20;5.50;;;4.80;99.90;;;;;;4974239;28;20038;-83
2023/12/18 04:51:03;;;;;;;16.25;7.50;;;5.00;99.90;;;;;;4989495;28;20038;-83
2023/12/18 04:53:31;;;;;;;18.98;8.15;;;5.00;99.90;;;;;;4976841;28;20034;-83
2023/12/18 04:55:57;;;;;;;15.15;6.80;;;4.90;99.90;;;;;;4971557;28;20181;-83
2023/12/18 04:58:25;;;;;;;20.75;10.35;;;4.90;99.90;;;;;;4986864;28;20126;-83
2023/12/18 05:00:50;;;;;;;14.82;7.60;;;4.70;99.90;;;;;;4985981;28;20436;-83
2023/12/18 05:03:16;;;;;;;19.70;9.70;;;4.90;99.90;;;;;;4970251;28;20034;-83
2023/12/18 05:05:41;;;;;;;16.35;7.32;;;4.90;99.90;;;;;;4973741;28;20038;-81
2023/12/18 05:08:07;;;;;;;15.07;9.80;;;5.00;99.90;;;;;;4982353;28;20027;-83
2023/12/18 05:10:32;;;;;;;17.40;9.43;;;5.00;99.90;;;;;;4973567;28;20122;-82
2023/12/18 05:12:59;;;;;;;18.65;9.20;;;5.00;99.90;;;;;;4981412;28;20041;-81
2023/12/18 05:15:24;;;;;;;17.77;8.27;;;5.00;99.90;;;;;;4984146;28;20026;-81
2023/12/18 05:17:50;;;;;;;10.63;6.65;;;5.10;99.90;;;;;;4969694;28;20034;-83
2023/12/18 05:20:16;;;;;;;11.27;4.47;;;4.90;99.90;;;;;;4974294;28;20033;-82
2023/12/18 05:22:41;;;;;;;14.95;7.45;;;5.00;99.90;;;;;;4974013;28;20030;-85
2023/12/18 05:25:08;;;;;;;21.15;9.48;;;5.00;99.90;;;;;;4986778;28;20045;-83
2023/12/18 05:27:34;;;;;;;23.05;10.02;;;5.00;99.90;;;;;;4987709;28;20108;-82
2023/12/18 05:29:59;;;;;;;13.52;5.80;;;5.00;99.90;;;;;;4985103;28;20033;-83
2023/12/18 05:32:25;;;;;;;14.00;7.70;;;5.00;99.90;;;;;;4974281;28;20079;-83
2023/12/18 05:34:50;;;;;;;22.52;7.65;;;5.00;99.90;;;;;;4983501;28;20556;-82
2023/12/18 05:37:16;;;;;;;18.42;9.48;;;5.10;99.90;;;;;;4970808;28;20031;-82
2023/12/18 05:39:41;;;;;;;14.32;7.60;;;4.90;99.90;;;;;;4972058;28;20037;-83
2023/12/18 05:42:07;;;;;;;13.98;6.53;;;5.00;99.90;;;;;;4981495;28;20038;-84
2023/12/18 05:44:32;;;;;;;11.00;5.10;;;5.00;99.90;;;;;;4967725;28;20038;-83
2023/12/18 05:46:58;;;;;;;18.23;9.45;;;5.00;99.90;;;;;;4972884;28;20120;-83
2023/12/18 05:49:23;;;;;;;10.93;5.93;;;4.90;99.90;;;;;;4972347;28;20045;-84
2023/12/18 05:51:49;;;;;;;21.42;10.93;;;5.10;99.90;;;;;;4966157;28;20136;-83
2023/12/18 05:54:22;;;;;;;21.58;9.50;;;5.00;99.90;;;;;;4980022;28;20116;-83
2023/12/18 05:56:48;;;;;;;17.17;8.15;;;4.90;99.90;;;;;;4970108;28;20049;-83
2023/12/18 05:59:13;;;;;;;12.48;7.22;;;5.00;99.90;;;;;;4989321;28;20068;-83
2023/12/18 06:01:39;;;;;;;8.10;4.13;;;5.00;99.90;;;;;;4967909;28;20486;-83
2023/12/18 06:04:05;;;;;;;17.20;7.15;;;5.00;99.90;;;;;;4975076;28;20046;-84
2023/12/18 06:06:30;;;;;;;19.58;8.60;;;5.00;99.90;;;;;;4970174;28;20033;-83
2023/12/18 06:08:56;;;;;;;12.88;7.07;;;5.00;99.90;;;;;;4986383;28;20040;-83
2023/12/18 06:11:21;;;;;;;20.13;10.18;;;5.00;99.90;;;;;;4966145;28;20045;-85
2023/12/18 06:13:47;;;;;;;17.00;10.20;;;4.90;99.90;;;;;;4987276;28;20036;-82
2023/12/18 06:16:12;;;;;;;13.50;7.05;;;5.00;99.90;;;;;;4969858;28;20030;-84
2023/12/18 06:18:38;;;;;;;21.60;8.88;;;5.00;99.90;;;;;;4972934;28;20438;-83
2023/12/18 06:21:05;;;;;;;13.75;5.20;;;5.00;99.90;;;;;;4973772;28;20186;-83
2023/12/18 06:23:30;;;;;;;18.65;9.15;;;5.10;99.90;;;;;;4974317;28;20034;-83
2023/12/18 06:25:56;;;;;;;21.65;10.98;;;5.00;99.90;;;;;;4982745;28;20723;-84
2023/12/18 06:28:22;;;;;;;18.23;8.50;;;5.00;99.90;;;;;;4968837;28;20487;-82
2023/12/18 06:30:47;;;;;;;17.73;9.60;;;5.10;99.90;;;;;;4971530;28;20035;-82
2023/12/18 06:33:14;;;;;;;22.20;11.88;;;5.00;99.90;;;;;;4985482;28;20035;-83
2023/12/18 06:35:42;;;;;;;12.88;6.15;;;5.00;99.90;;;;;;4977035;28;20034;-83
2023/12/18 06:38:08;;;;;;;23.98;9.95;;;5.00;99.90;;;;;;4972005;28;20058;-85
2023/12/18 06:40:35;;;;;;;25.90;11.48;;;5.10;99.90;;;;;;4976765;28;20109;-86
2023/12/18 06:43:00;;;;;;;19.58;9.38;;;5.10;99.90;;;;;;4973468;28;20042;-86
2023/12/18 06:45:26;;;;;;;21.40;9.20;;;5.00;99.90;;;;;;4951019;28;20041;-86
2023/12/18 06:47:51;;;;;;;20.67;9.07;;;5.10;99.90;;;;;;4975624;28;20560;-86
2023/12/18 06:50:17;;;;;;;15.73;7.53;;;5.10;99.90;;;;;;4984076;28;20033;-86
2023/12/18 06:52:43;;;;;;;24.23;13.30;;;5.10;99.90;;;;;;4969723;28;20030;-85
2023/12/18 06:55:09;;;;;;;17.52;8.68;;;5.20;99.90;;;;;;4968902;28;20023;-83
2023/12/18 06:57:34;;;;;;;21.80;10.65;;;5.10;99.90;;;;;;4992587;28;20034;-84
2023/12/18 07:00:00;;;;;;;24.05;10.10;;;5.10;99.90;;;;;;4969163;28;20067;-84
2023/12/18 07:02:26;;;;;;;17.05;8.82;;;5.10;99.90;;;;;;4974052;28;20033;-86
2023/12/18 07:04:52;;;;;;;24.35;11.32;;;5.10;99.90;;;;;;4975095;28;20023;-85
2023/12/18 07:07:18;;;;;;;24.30;12.80;;;5.10;99.90;;;;;;4973251;28;20056;-84
2023/12/18 07:09:44;;;;;;;11.75;6.93;;;5.10;99.90;;;;;;4971410;28;20072;-85
2023/12/18 07:12:10;;;;;;;17.25;8.90;;;5.10;99.90;;;;;;4973273;28;20581;-84
2023/12/18 07:14:40;;;;;;;20.83;10.13;;;5.10;99.90;;;;;;4964355;28;20088;-85
2023/12/18 07:17:06;;;;;;;10.02;6.05;;;5.00;99.90;;;;;;4965604;28;20044;-85
2023/12/18 07:19:32;;;;;;;7.47;4.18;;;5.10;99.90;;;;;;4975330;28;20034;-85
2023/12/18 07:21:58;;;;;;;16.38;5.60;;;5.10;99.90;;;;;;4993230;28;20137;-84
2023/12/18 07:24:23;;;;;;;16.00;9.15;;;5.10;99.90;;;;;;4974434;28;20097;-84
2023/12/18 07:26:49;;;;;;;12.40;7.20;;;5.10;99.90;;;;;;4972169;28;20030;-86
2023/12/18 07:29:14;;;;;;;14.98;7.35;;;5.10;99.90;;;;;;4969873;28;20049;-83
2023/12/18 07:31:40;;;;;;;14.60;6.32;;;5.10;99.90;;;;;;4974901;28;20042;-85
2023/12/18 07:34:06;;;;;;;15.95;7.35;;;5.10;99.90;;;;;;4967787;28;20034;-82
2023/12/18 07:36:35;;;;;;;14.48;7.25;;;5.10;99.90;;;;;;4987074;28;20068;-85
2023/12/18 07:39:00;;;;;;;21.80;10.63;;;5.10;99.90;;;;;;4977150;28;20037;-86
2023/12/18 07:41:30;;;;;;;18.13;9.57;;;5.10;99.90;;;;;;4981688;28;20406;-86
2023/12/18 07:43:56;;;;;;;25.42;10.55;;;5.10;99.90;;;;;;4981347;28;20593;-87
2023/12/18 07:46:22;;;;;;;17.63;9.75;;;5.30;99.90;;;;;;4971743;28;20045;-86
2023/12/18 07:48:48;;;;;;;22.70;11.70;;;5.20;99.90;;;;;;4969998;28;20071;-85
2023/12/18 07:51:14;;;;;;;11.38;5.35;;;5.20;99.90;;;;;;4971174;28;20056;-86
2023/12/18 07:53:39;;;;;;;24.27;11.30;;;5.30;99.90;;;;;;4976009;28;20061;-85
2023/12/18 07:56:05;;;;;;;14.13;7.78;;;5.20;99.90;;;;;;4971147;28;20053;-82
2023/12/18 07:58:31;;;;;;;17.35;8.57;;;5.20;99.90;;;;;;4972464;28;21289;-82
2023/12/18 08:00:56;;;;;;;10.43;4.85;;;5.10;99.90;;;;;;4970384;28;20501;-82
2023/12/18 08:03:28;;;;;;;12.68;4.90;;;5.20;99.90;;;;;;4969508;28;20034;-82
2023/12/18 08:05:53;;;;;;;23.67;12.88;;;5.20;99.90;;;;;;4974801;28;20037;-82
2023/12/18 08:08:19;;;;;;;15.05;6.68;;;5.10;99.90;;;;;;4958071;28;20375;-82
2023/12/18 08:10:44;;;;;;;19.48;7.97;;;5.10;99.90;;;;;;4969305;28;20398;-81
2023/12/18 08:13:10;;;;;;;15.48;6.18;;;5.10;99.90;;;;;;4987411;28;20491;-81
2023/12/18 08:15:36;;;;;;;12.45;5.93;;;5.20;99.90;;;;;;4964771;28;20054;-80
2023/12/18 08:18:01;;;;;;;16.45;7.97;;;5.20;99.90;;;;;;4983968;28;20772;-81
2023/12/18 08:20:27;;;;;;;17.00;7.57;;;5.20;99.90;;;;;;4968890;28;20565;-81
2023/12/18 08:22:52;;;;;;;16.00;7.75;;;5.20;99.90;;;;;;4988663;28;20386;-81
2023/12/18 08:25:18;;;;;;;17.38;9.52;;;5.20;99.90;;;;;;4970741;28;20042;-80
2023/12/18 08:27:44;;;;;;;23.20;10.52;;;5.20;99.90;;;;;;4971336;28;20132;-81
2023/12/18 08:30:11;;;;;;;9.95;4.78;;;5.20;99.90;;;;;;4970960;28;20123;-80
2023/12/18 08:32:37;;;;;;;21.83;10.55;;;5.20;99.90;;;;;;4974204;28;20037;-81
2023/12/18 08:35:03;;;;;;;15.23;8.02;;;5.20;99.90;;;;;;4971456;28;20045;-81
2023/12/18 08:37:28;;;;;;;27.67;11.43;;;5.20;99.90;;;;;;4986915;28;20034;-80
2023/12/18 08:39:55;;;;;;;17.50;9.80;;;5.20;99.90;;;;;;4978739;28;20022;-81
2023/12/18 08:42:20;;;;;;;19.73;10.20;;;5.20;99.90;;;;;;4980123;28;20037;-81
2023/12/18 08:44:48;;;;;;;16.27;6.00;;;5.10;99.90;;;;;;4971669;28;20359;-81
2023/12/18 08:47:13;;;;;;;16.13;9.98;;;5.20;99.90;;;;;;4982693;28;20478;-80
2023/12/18 08:49:39;;;;;;;21.35;11.68;;;5.20;99.90;;;;;;4972806;28;20061;-80
2023/12/18 08:52:04;;;;;;;24.83;12.02;;;5.20;99.90;;;;;;4971535;28;20100;-81
2023/12/18 08:54:30;;;;;;;20.95;10.00;;;5.20;99.90;;;;;;4981971;28;20088;-81
2023/12/18 08:56:56;;;;;;;7.00;4.20;;;5.20;99.90;;;;;;4951311;28;20038;-81
2023/12/18 08:59:22;;;;;;;15.32;7.47;;;5.20;99.90;;;;;;4967768;28;20034;-80
2023/12/18 09:01:47;;;;;;;11.32;6.53;;;5.20;99.90;;;;;;4968273;28;20494;-80
2023/12/18 09:04:13;;;;;;;18.88;10.35;;;5.20;99.90;;;;;;4969409;28;20093;-80
2023/12/18 09:06:39;;;;;;;23.13;12.25;;;5.20;99.90;;;;;;4986909;28;20156;-80
2023/12/18 09:09:04;;;;;;;21.20;10.98;;;5.20;99.90;;;;;;4985264;28;20449;-80
2023/12/18 09:11:33;;;;;;;21.70;12.25;;;5.20;99.90;;;;;;4978352;28;20034;-80
2023/12/18 09:13:59;;;;;;;23.80;11.73;;;5.30;99.90;;;;;;4984678;28;20026;-80
2023/12/18 09:16:24;;;;;;;23.02;11.98;;;5.30;99.90;;;;;;4979046;28;20037;-81
2023/12/18 09:18:50;;;;;;;19.92;9.18;;;5.30;99.90;;;;;;4969569;28;20070;-81
2023/12/18 09:21:15;;;;;;;23.23;10.68;;;5.30;99.90;;;;;;4965277;28;20116;-81
2023/12/18 09:23:41;;;;;;;18.48;9.95;;;5.30;99.90;;;;;;4969204;28;20402;-82
2023/12/18 09:26:07;;;;;;;18.38;7.18;;;5.40;99.90;;;;;;4975451;28;20026;-81
2023/12/18 09:28:33;;;;;;;14.50;8.43;;;5.40;99.90;;;;;;4964539;28;20078;-81
2023/12/18 09:30:58;;;;;;;18.05;9.50;;;5.40;99.90;;;;;;4963761;28;20036;-81
2023/12/18 09:33:24;;;;;;;22.60;11.07;;;5.40;99.90;;;;;;4970263;28;20233;-81
2023/12/18 09:35:49;;;;;;;18.30;10.52;;;5.50;99.90;;;;;;4969667;28;20079;-80
2023/12/18 09:38:15;;;;;;;19.20;10.45;;;5.50;99.90;;;;;;4968277;28;20502;-81
2023/12/18 09:40:44;;;;;;;19.10;10.80;;;5.50;99.90;;;;;;4967543;28;20482;-81
2023/12/18 09:43:15;;;;;;;15.80;10.05;;;5.60;99.90;;;;;;4968125;28;20307;-81
2023/12/18 09:45:41;;;;;;;19.52;10.23;;;5.60;99.90;;;;;;4961658;28;20158;-81
2023/12/18 09:48:08;;;;;;;24.35;11.35;;;5.50;99.90;;;;;;4965297;28;20034;-81
2023/12/18 09:50:33;;;;;;;26.42;14.52;;;5.60;99.90;;;;;;4969218;28;20029;-80
2023/12/18 09:53:02;;;;;;;13.32;6.90;;;5.50;99.90;;;;;;4966452;28;20038;-81
2023/12/18 09:55:31;;;;;;;20.23;9.52;;;5.60;99.90;;;;;;4955374;28;20030;-80
2023/12/18 09:57:58;;;;;;;14.20;8.55;;;5.60;99.90;;;;;;4979641;28;20019;-81
2023/12/18 10:00:24;;;;;;;22.13;12.18;;;5.60;99.90;;;;;;4976509;28;20430;-81
2023/12/18 10:02:49;;;;;;;12.80;7.85;;;5.60;99.90;;;;;;4968499;28;20038;-81
2023/12/18 10:05:18;;;;;;;20.40;9.43;;;5.70;99.90;;;;;;4965981;28;20038;-81
2023/12/18 10:07:43;;;;;;;22.92;11.57;;;5.60;99.90;;;;;;4950481;28;20153;-81
2023/12/18 10:10:09;;;;;;;20.63;10.40;;;5.70;99.90;;;;;;4964270;28;20431;-81
2023/12/18 10:12:38;;;;;;;15.15;7.10;;;5.60;99.90;;;;;;4969412;28;20041;-80
2023/12/18 10:15:11;;;;;;;22.58;11.38;;;5.70;99.90;;;;;;4980566;28;20084;-80
2023/12/18 10:17:42;;;;;;;17.45;8.77;;;5.70;99.90;;;;;;4973139;28;20042;-81
2023/12/18 10:20:08;;;;;;;17.67;9.70;;;5.70;99.90;;;;;;4972437;28;20030;-81
2023/12/18 10:22:34;;;;;;;21.27;10.25;;;5.80;99.90;;;;;;4984084;28;20195;-81
2023/12/18 10:25:02;;;;;;;27.17;12.90;;;5.80;99.90;;;;;;4968950;28;20148;-80
2023/12/18 10:27:31;;;;;;;21.65;10.02;;;5.70;99.90;;;;;;4972346;28;20037;-81
2023/12/18 10:29:57;;;;;;;22.70;12.07;;;5.80;99.90;;;;;;4986191;28;20164;-79
2023/12/18 10:32:23;;;;;;;16.70;10.60;;;5.70;99.90;;;;;;4974183;28;20128;-81
2023/12/18 10:34:50;;;;;;;11.50;6.20;;;5.80;99.90;;;;;;4981871;28;20432;-81
2023/12/18 10:37:16;;;;;;;17.45;11.13;;;5.70;99.90;;;;;;4983374;28;20030;-80
2023/12/18 10:39:42;;;;;;;17.33;8.88;;;5.80;99.90;;;;;;4974489;28;20497;-81
2023/12/18 10:42:13;;;;;;;13.32;7.07;;;5.80;99.90;;;;;;4987784;28;20031;-81
2023/12/18 10:44:40;;;;;;;17.77;9.00;;;5.70;99.90;;;;;;4971629;28;20646;-81
2023/12/18 10:47:05;;;;;;;12.82;6.85;;;5.70;99.90;;;;;;4987035;28;20629;-81
2023/12/18 10:49:32;;;;;;;18.02;10.07;;;5.70;99.90;;;;;;4984832;28;20031;-81
2023/12/18 10:51:57;;;;;;;17.27;9.38;;;5.70;99.90;;;;;;4984073;28;20144;-81
2023/12/18 10:54:23;;;;;;;13.77;6.13;;;5.80;99.90;;;;;;4984970;28;20097;-81
2023/12/18 10:56:48;;;;;;;15.95;8.93;;;5.70;99.90;;;;;;4985573;28;20033;-81
2023/12/18 10:59:14;;;;;;;20.55;10.60;;;5.80;99.90;;;;;;4970848;28;20188;-81
2023/12/18 11:01:40;;;;;;;22.17;9.10;;;5.70;99.90;;;;;;4985519;28;20494;-81
2023/12/18 11:04:05;;;;;;;14.07;6.38;;;5.70;99.90;;;;;;4969447;28;20030;-82
2023/12/18 11:06:31;;;;;;;8.32;5.28;;;5.60;99.90;;;;;;4972730;28;20123;-81
2023/12/18 11:08:57;;;;;;;10.13;6.13;;;5.80;99.90;;;;;;4986005;28;20033;-80
2023/12/18 11:11:22;;;;;;;18.45;10.50;;;5.80;99.90;;;;;;4982665;28;20549;-81
2023/12/18 11:14:12;;;;;;;17.90;9.15;;;5.80;99.90;;;;;;4969685;28;20742;-81
2023/12/18 11:17:06;;;;;;;17.63;9.90;;;5.80;99.90;;;;;;4997821;28;20037;-81
2023/12/18 11:19:34;;;;;;;18.52;11.05;;;5.80;99.90;;;;;;4998286;28;20117;-81
2023/12/18 11:22:04;;;;;;;16.70;9.65;;;5.80;99.90;;;;;;4982249;28;20034;-81
2023/12/18 11:24:39;;;;;;;12.98;5.82;;;5.90;99.90;;;;;;4968981;28;20033;-81
2023/12/18 11:27:05;;;;;;;14.38;6.85;;;5.80;99.90;;;;;;4986776;28;20065;-81
2023/12/18 11:29:43;;;;;;;17.77;9.45;;;5.90;99.90;;;;;;4973638;28;20509;-81
2023/12/18 11:32:11;;;;;;;18.13;7.68;;;5.90;99.90;;;;;;4971934;28;20046;-81
2023/12/18 11:34:40;;;;;;;11.90;5.22;;;5.90;99.90;;;;;;4985557;28;20034;-81
2023/12/18 11:37:08;;;;;;;21.05;12.23;;;5.90;99.90;;;;;;4973740;28;20120;-81
2023/12/18 11:39:39;;;;;;;17.02;9.55;;;6.10;99.90;;;;;;4975375;28;20030;-81
2023/12/18 11:42:06;;;;;;;7.45;5.03;;;5.90;99.90;;;;;;4989001;28;20034;-81
2023/12/18 11:44:34;;;;;;;9.63;5.03;;;5.90;99.90;;;;;;4986866;28;20044;-81
2023/12/18 11:46:59;;;;;;;16.95;8.65;;;5.90;99.90;;;;;;4987153;28;20046;-81
2023/12/18 11:49:28;;;;;;;14.18;7.70;;;5.90;99.90;;;;;;4979729;28;20038;-81
2023/12/18 11:51:53;;;;;;;7.35;3.95;;;5.90;99.90;;;;;;4970022;28;20038;-81
2023/12/18 11:54:23;;;;;;;16.92;8.13;;;5.90;99.90;;;;;;4968626;28;20117;-81
2023/12/18 11:56:50;;;;;;;22.30;9.60;;;6.00;99.90;;;;;;4983968;28;20683;-81
2023/12/18 11:59:18;;;;;;;18.90;10.20;;;6.00;99.90;;;;;;4969551;28;20029;-81
2023/12/18 12:01:48;;;;;;;18.92;10.98;;;6.00;99.90;;;;;;4966537;28;20498;-81
2023/12/18 12:04:14;;;;;;;16.40;8.48;;;6.10;99.90;;;;;;4966953;28;20038;-81
2023/12/18 12:06:40;;;;;;;6.93;5.22;;;6.10;99.90;;;;;;4968938;28;20046;-81
2023/12/18 12:09:06;;;;;;;12.35;6.35;;;6.00;99.90;;;;;;4959146;28;20037;-80
2023/12/18 12:11:32;;;;;;;8.32;4.18;;;6.00;99.90;;;;;;4972561;28;20144;-81
2023/12/18 12:13:57;;;;;;;11.40;6.30;;;6.00;99.90;;;;;;4974107;28;20148;-79
2023/12/18 12:16:23;;;;;;;6.97;4.25;;;6.00;99.90;;;;;;4973019;28;20030;-80
2023/12/18 12:18:50;;;;;;;10.60;6.55;;;6.00;99.90;;;;;;4975254;28;20038;-81
2023/12/18 12:21:17;;;;;;;13.70;8.55;;;6.00;99.90;;;;;;4989708;28;20038;-81
2023/12/18 12:23:44;;;;;;;14.18;7.07;;;6.00;99.90;;;;;;4972885;28;20113;-80
2023/12/18 12:26:10;;;;;;;8.23;4.15;;;6.10;99.90;;;;;;4989688;28;20065;-86
2023/12/18 12:28:35;;;;;;;14.95;8.38;;;6.00;99.90;;;;;;4987247;28;20312;-86
2023/12/18 12:31:03;;;;;;;14.50;8.60;;;6.00;99.90;;;;;;4991793;28;20037;-88
2023/12/18 12:33:45;;;;;;;12.68;7.00;;;6.00;99.90;;;;;;4981205;28;20037;-87
2023/12/18 12:36:14;;;;;;;12.73;7.22;;;6.10;99.90;;;;;;4975610;28;20124;-85
2023/12/18 12:38:40;;;;;;;10.85;7.10;;;6.00;99.90;;;;;;4972053;28;20498;-87
2023/12/18 12:41:05;;;;;;;15.52;6.85;;;6.00;99.90;;;;;;4970149;28;20072;-85
2023/12/18 12:43:31;;;;;;;13.10;6.68;;;6.10;99.90;;;;;;4969545;28;20042;-88